Time;durP1;ratioP1;P1;durP2;ratioP2;P2;SDS_P1;SDS_P2;PMS_P1;PMS_P2;Temp;Humidity;BMP_temperature;BMP_pressure;BME280_temperature;BME280_humidity;BME280_pressure;Samples;Min_cycle;Max_cycle;Signal;HPM_P1;HPM_P2
2022/09/24 00:11:27;;;;;;;4.37;2.60;;;;;;;10.08;86.30;99946.00;30848378;28;20101;-73
2022/09/24 00:41:49;;;;;;;7.27;2.37;;;;;;;9.92;86.68;99939.31;30864330;28;20491;-71
2022/09/24 00:56:52;;;;;;;4.30;2.17;;;;;;;9.83;87.80;99922.88;30897420;28;20086;-71
2022/09/24 01:12:18;;;;;;;4.07;2.57;;;;;;;9.79;89.14;99915.97;30905996;28;20054;-71
2022/09/24 01:27:45;;;;;;;4.40;2.47;;;;;;;9.76;90.45;99893.19;30877431;28;20507;-72
2022/09/24 01:42:49;;;;;;;4.27;1.90;;;;;;;9.79;90.30;99892.34;30893816;28;20137;-72
2022/09/24 01:58:00;;;;;;;5.10;2.60;;;;;;;9.70;91.00;99888.66;30885769;28;20125;-72
2022/09/24 02:13:05;;;;;;;8.13;2.97;;;;;;;9.53;91.73;99888.59;30883102;28;20113;-71
2022/09/24 02:28:09;;;;;;;6.00;3.10;;;;;;;9.40;93.62;99892.34;30879135;28;20061;-71
2022/09/24 02:43:11;;;;;;;6.00;2.57;;;;;;;9.30;94.87;99909.53;30873179;28;20055;-72
2022/09/24 02:58:12;;;;;;;14.13;7.63;;;;;;;9.24;96.27;99918.13;30891635;28;20055;-71
2022/09/24 03:13:16;;;;;;;7.93;3.17;;;;;;;9.09;97.45;99926.91;30857548;28;20114;-71
2022/09/24 03:28:19;;;;;;;4.53;2.83;;;;;;;8.87;97.50;99931.91;30909757;28;20047;-71
2022/09/24 03:43:21;;;;;;;10.87;3.00;;;;;;;8.70;98.06;99943.75;30863020;28;20055;-73
2022/09/24 03:58:24;;;;;;;8.80;3.67;;;;;;;8.61;96.28;99957.78;30863585;28;20286;-72
2022/09/24 04:13:26;;;;;;;7.10;3.53;;;;;;;8.61;98.82;99954.31;30863547;28;20495;-70
2022/09/24 04:28:29;;;;;;;7.23;3.77;;;;;;;9.17;96.61;99942.63;30872961;28;20108;-71
2022/09/24 04:43:32;;;;;;;8.30;4.53;;;;;;;9.77;95.68;99948.16;30880805;28;20062;-72
2022/09/24 04:58:33;;;;;;;7.97;4.30;;;;;;;10.00;95.21;99950.03;30888103;28;20063;-71
2022/09/24 05:13:35;;;;;;;14.43;4.40;;;;;;;10.39;93.21;99960.91;30870369;28;20120;-71
2022/09/24 05:28:39;;;;;;;9.60;4.13;;;;;;;11.56;89.74;99977.19;30902545;28;20112;-72
2022/09/24 05:43:41;;;;;;;7.73;3.93;;;;;;;12.62;84.91;99959.06;30879467;28;20443;-71
2022/09/24 05:58:42;;;;;;;7.30;4.17;;;;;;;13.08;82.94;99965.81;30901803;28;20058;-71
2022/09/24 06:13:44;;;;;;;4.97;3.30;;;;;;;15.18;73.45;99964.47;30875917;28;20055;-72
2022/09/24 06:28:46;;;;;;;5.73;3.13;;;;;;;15.58;69.89;99971.84;30884074;28;20058;-72
2022/09/24 06:43:48;;;;;;;6.27;2.77;;;;;;;15.71;67.91;99969.72;30874299;28;20530;-73
2022/09/24 06:58:50;;;;;;;6.03;3.60;;;;;;;15.67;67.54;99974.59;30869470;28;20058;-73
2022/09/24 07:13:52;;;;;;;4.28;2.65;;;;;;;15.93;67.45;99975.78;30824604;28;20483;-73
2022/09/24 07:28:54;;;;;;;6.87;3.17;;;;;;;15.62;67.97;99975.19;30846889;28;20105;-72
2022/09/24 07:43:56;;;;;;;4.73;2.57;;;;;;;17.43;62.00;99963.34;30846130;28;20059;-72
2022/09/24 07:58:58;;;;;;;3.92;2.10;;;;;;;16.76;62.08;99961.91;30850705;28;20110;-75
2022/09/24 08:14:00;;;;;;;3.75;1.80;;;;;;;15.94;65.04;99965.59;30851740;28;20050;-73
2022/09/24 08:29:02;;;;;;;5.63;2.80;;;;;;;15.74;66.02;99959.84;30860575;28;20051;-75
2022/09/24 08:59:50;;;;;;;3.13;2.50;;;;;;;16.47;62.44;99954.22;30842975;28;20055;-73
2022/09/24 09:15:03;;;;;;;2.30;1.60;;;;;;;16.75;61.23;99961.16;30838968;28;20055;-75
2022/09/24 09:30:11;;;;;;;1.90;1.50;;;;;;;17.30;57.71;99956.13;30846231;28;20121;-76
2022/09/24 09:45:43;;;;;;;1.88;1.30;;;;;;;16.94;55.88;99968.06;30853354;28;20082;-74
2022/09/24 10:00:48;;;;;;;3.97;2.40;;;;;;;16.78;57.82;99948.47;30868853;28;20435;-74
2022/09/24 10:16:03;;;;;;;3.35;1.85;;;;;;;17.42;55.97;99934.41;30852501;28;20145;-74
2022/09/24 10:31:28;;;;;;;4.57;2.53;;;;;;;18.86;50.72;99924.38;30838675;28;20051;-74
2022/09/24 10:46:58;;;;;;;6.45;2.15;;;;;;;19.02;48.48;99905.34;30856771;28;20050;-76
2022/09/24 11:02:06;;;;;;;18.98;6.55;;;;;;;20.14;46.72;99906.53;30867106;28;20062;-77
2022/09/24 11:18:06;;;;;;;7.07;3.28;;;;;;;18.57;49.16;99908.69;30908866;28;20054;-77
2022/09/24 11:33:31;;;;;;;7.78;3.63;;;;;;;19.81;46.32;99901.50;30877900;28;20101;-77
2022/09/24 11:48:42;;;;;;;4.25;2.15;;;;;;;18.36;48.47;99905.13;30890123;28;20066;-77
2022/09/24 12:04:03;;;;;;;8.60;3.58;;;;;;;17.36;49.48;99917.81;30888386;28;20054;-76
2022/09/24 12:19:17;;;;;;;4.05;2.00;;;;;;;15.30;61.20;99963.59;30909954;28;20086;-76
2022/09/24 12:34:49;;;;;;;4.97;2.10;;;;;;;13.61;75.20;100001.50;30896725;28;20537;-76
2022/09/24 12:49:59;;;;;;;6.20;3.37;;;;;;;12.69;92.42;100018.03;30902545;28;20066;-77
2022/09/24 13:05:00;;;;;;;4.23;1.87;;;;;;;13.12;93.32;100012.78;30923960;28;20606;-77
2022/09/24 13:20:07;;;;;;;2.50;1.40;;;;;;;13.54;92.20;100004.47;30909970;28;20057;-77
2022/09/24 13:35:16;;;;;;;34.33;15.70;;;;;;;14.07;88.60;99996.41;30881946;28;20113;-77
2022/09/24 13:50:43;;;;;;;6.87;1.10;;;;;;;13.74;88.23;99998.72;30871353;28;20047;-76
2022/09/24 14:05:45;;;;;;;2.23;1.20;;;;;;;13.80;89.18;100000.44;30852608;28;20054;-76
2022/09/24 14:20:53;;;;;;;4.47;1.77;;;;;;;13.16;85.78;100013.47;30870758;28;20507;-75
2022/09/24 14:35:57;;;;;;;3.10;1.17;;;;;;;12.76;91.47;100012.34;30856617;28;20078;-76
2022/09/24 14:50:59;;;;;;;7.40;3.10;;;;;;;12.45;91.44;100023.75;30842644;28;20051;-76
2022/09/24 15:06:13;;;;;;;3.80;2.53;;;;;;;12.23;92.55;100041.88;30877740;28;20051;-76
2022/09/24 15:21:15;;;;;;;2.80;1.53;;;;;;;12.10;93.71;100054.66;30850654;28;20117;-77
2022/09/24 15:36:19;;;;;;;2.77;1.73;;;;;;;11.98;95.33;100061.59;30866684;28;20448;-78
2022/09/24 15:51:22;;;;;;;4.83;1.70;;;;;;;11.70;97.81;100087.53;30826233;28;20058;-76
2022/09/24 16:06:24;;;;;;;4.23;1.90;;;;;;;11.52;99.45;100095.34;30843864;28;20054;-80
2022/09/24 16:21:26;;;;;;;3.60;1.97;;;;;;;11.48;100.00;100113.69;30833590;28;20454;-75
2022/09/24 16:36:28;;;;;;;4.20;2.53;;;;;;;11.50;100.00;100124.91;30868826;28;20059;-75
2022/09/24 16:51:30;;;;;;;3.97;2.03;;;;;;;11.47;99.77;100139.34;30917517;28;20058;-76
2022/09/24 17:06:33;;;;;;;2.77;1.77;;;;;;;11.37;97.25;100151.97;30865967;28;20458;-74
2022/09/24 17:21:36;;;;;;;3.57;1.80;;;;;;;11.21;93.27;100155.44;30872224;28;20400;-73
2022/09/24 17:36:38;;;;;;;4.47;1.50;;;;;;;11.11;92.75;100175.44;30852574;28;20102;-76
2022/09/24 17:51:41;;;;;;;4.93;2.50;;;;;;;11.00;94.43;100166.75;30864058;28;20458;-77
2022/09/24 18:06:44;;;;;;;1.70;1.30;;;;;;;10.80;94.18;100179.56;30856570;28;20059;-77
2022/09/24 18:21:48;;;;;;;3.30;1.80;;;;;;;10.62;95.41;100176.44;30867855;28;20101;-78
2022/09/24 18:36:49;;;;;;;4.67;2.37;;;;;;;10.40;96.68;100178.72;30855530;28;20057;-76
2022/09/24 18:51:51;;;;;;;21.80;12.30;;;;;;;10.19;98.53;100179.88;30844281;28;20065;-78
2022/09/24 19:06:53;;;;;;;3.00;2.00;;;;;;;10.05;99.24;100180.09;30855421;28;20058;-78
2022/09/24 19:21:55;;;;;;;2.67;1.90;;;;;;;9.77;100.00;100187.50;30862395;28;20152;-77
2022/09/24 19:36:57;;;;;;;4.80;2.30;;;;;;;9.86;99.92;100209.44;30884133;28;20062;-76
2022/09/24 19:51:59;;;;;;;6.53;3.00;;;;;;;9.92;100.00;100207.78;30863146;28;20507;-76
2022/09/24 20:07:01;;;;;;;8.73;3.40;;;;;;;9.83;99.76;100228.47;30872713;28;20054;-76
2022/09/24 20:22:06;;;;;;;5.87;2.70;;;;;;;9.72;99.08;100233.25;30876843;28;20050;-76
2022/09/24 20:37:09;;;;;;;4.13;2.77;;;;;;;9.81;98.30;100245.13;30851207;28;20058;-77
2022/09/24 20:52:11;;;;;;;4.07;2.17;;;;;;;9.72;97.87;100234.03;30851188;28;20058;-75
2022/09/24 21:07:13;;;;;;;6.63;2.70;;;;;;;9.69;96.97;100250.34;30876857;28;20050;-77
2022/09/24 21:22:15;;;;;;;3.83;2.70;;;;;;;9.71;96.40;100248.75;30913560;28;20042;-76
2022/09/24 21:37:17;;;;;;;37.30;20.60;;;;;;;9.62;97.19;100262.06;30895257;28;20055;-77
2022/09/24 21:52:19;;;;;;;5.13;3.30;;;;;;;9.58;96.33;100266.75;30880831;28;20563;-77
2022/09/24 22:07:21;;;;;;;6.83;3.00;;;;;;;9.64;95.23;100281.41;30874083;28;20523;-76
2022/09/24 22:22:23;;;;;;;4.53;2.40;;;;;;;9.59;94.65;100276.44;30892966;28;20061;-77
2022/09/24 22:37:26;;;;;;;5.07;1.77;;;;;;;9.53;94.31;100272.63;30880291;28;20522;-77
2022/09/24 22:52:28;;;;;;;4.10;2.20;;;;;;;9.53;93.84;100286.19;30897990;28;20055;-77
2022/09/24 23:07:30;;;;;;;5.07;2.50;;;;;;;9.50;93.33;100281.56;30868087;28;20057;-76
2022/09/24 23:22:32;;;;;;;4.73;3.30;;;;;;;9.43;93.40;100287.84;30859941;28;20106;-77
2022/09/24 23:37:35;;;;;;;6.03;3.10;;;;;;;9.32;93.62;100302.69;30856790;28;20066;-77
2022/09/24 23:52:37;;;;;;;4.83;2.80;;;;;;;9.28;93.14;100299.25;30868564;28;20070;-76
